Time;durP1;ratioP1;P1;durP2;ratioP2;P2;SDS_P1;SDS_P2;PMS_P1;PMS_P2;Temp;Humidity;BMP_temperature;BMP_pressure;BME280_temperature;BME280_humidity;BME280_pressure;Samples;Min_cycle;Max_cycle;Signal;HPM_P1;HPM_P2
2022/05/23 00:02:26;;;;;;;;;;;25.00;94.50;;;;;;4863771;29;19932;-60
2022/05/23 00:04:54;;;;;;;;;;;25.00;94.50;;;;;;4858526;29;19938;-61
2022/05/23 00:07:23;;;;;;;;;;;25.00;94.50;;;;;;4858500;29;19951;-60
2022/05/23 00:09:51;;;;;;;;;;;25.00;94.50;;;;;;4859528;29;19932;-59
2022/05/23 00:12:18;;;;;;;;;;;25.00;94.50;;;;;;4861797;29;19939;-61
2022/05/23 00:14:46;;;;;;;;;;;25.00;94.50;;;;;;4839437;29;19932;-60
2022/05/23 00:17:13;;;;;;;;;;;24.90;94.50;;;;;;4857061;29;19928;-59
2022/05/23 00:19:41;;;;;;;;;;;24.90;94.50;;;;;;4856623;29;20312;-61
2022/05/23 00:22:10;;;;;;;;;;;24.90;94.50;;;;;;4866468;29;20371;-60
2022/05/23 00:24:37;;;;;;;;;;;24.90;94.50;;;;;;4856574;29;19932;-59
2022/05/23 00:27:05;;;;;;;;;;;24.90;94.50;;;;;;4856416;29;19928;-62
2022/05/23 00:29:32;;;;;;;;;;;24.90;94.50;;;;;;4856706;29;19932;-59
2022/05/23 00:37:31;;;;;;;;;;;24.90;94.50;;;;;;4866760;29;19940;-61
2022/05/23 00:39:58;;;;;;;;;;;24.90;94.50;;;;;;4859288;29;20284;-61
2022/05/23 00:45:29;;;;;;;;;;;24.90;94.50;;;;;;4798772;29;19933;-59
2022/05/23 00:47:57;;;;;;;;;;;24.90;94.50;;;;;;4845223;29;19962;-63
2022/05/23 00:50:27;;;;;;;;;;;24.90;94.60;;;;;;4855371;29;20339;-61
2022/05/23 00:52:56;;;;;;;;;;;24.90;94.60;;;;;;4823978;29;19932;-58
2022/05/23 00:55:28;;;;;;;;;;;24.90;94.60;;;;;;4856434;29;19928;-59
2022/05/23 00:57:57;;;;;;;;;;;24.80;94.60;;;;;;4839502;29;19943;-60
2022/05/23 01:00:25;;;;;;;;;;;24.90;94.60;;;;;;4856459;29;20324;-62
2022/05/23 01:02:54;;;;;;;;;;;24.80;94.50;;;;;;4854087;29;19939;-62
2022/05/23 01:05:22;;;;;;;;;;;24.90;94.60;;;;;;4856743;29;20400;-58
2022/05/23 01:07:49;;;;;;;;;;;24.90;94.60;;;;;;4857005;29;19932;-59
2022/05/23 01:10:17;;;;;;;;;;;24.80;94.60;;;;;;4857876;29;19928;-60
2022/05/23 01:12:45;;;;;;;;;;;24.80;94.60;;;;;;4845198;29;20385;-63
2022/05/23 01:15:22;;;;;;;;;;;24.80;94.60;;;;;;4862810;29;19983;-61
2022/05/23 01:17:49;;;;;;;;;;;24.80;94.60;;;;;;4845788;29;19935;-60
2022/05/23 01:20:17;;;;;;;;;;;24.80;94.60;;;;;;4845648;29;20514;-61
2022/05/23 01:22:44;;;;;;;;;;;24.80;94.60;;;;;;4860376;29;19936;-60
2022/05/23 01:25:41;;;;;;;;;;;24.80;94.60;;;;;;4858669;29;19939;-58
2022/05/23 01:28:11;;;;;;;;;;;24.80;94.50;;;;;;4860518;29;20372;-61
2022/05/23 01:30:40;;;;;;;;;;;24.80;94.50;;;;;;4859911;29;19929;-60
2022/05/23 01:33:23;;;;;;;;;;;24.80;94.60;;;;;;4845610;29;19928;-61
2022/05/23 01:35:50;;;;;;;;;;;24.80;94.50;;;;;;4862353;29;19928;-59
2022/05/23 01:38:17;;;;;;;;;;;24.80;94.60;;;;;;4862085;29;19932;-62
2022/05/23 01:41:05;;;;;;;;;;;24.80;94.60;;;;;;4859490;29;19936;-61
2022/05/23 01:43:34;;;;;;;;;;;24.80;94.60;;;;;;4844992;29;19928;-59
2022/05/23 01:46:23;;;;;;;;;;;24.80;94.60;;;;;;4845023;29;19932;-58
2022/05/23 01:49:05;;;;;;;;;;;24.80;94.60;;;;;;4845030;29;20388;-60
2022/05/23 01:51:32;;;;;;;;;;;24.80;94.60;;;;;;4845337;29;19963;-58
2022/05/23 01:53:59;;;;;;;;;;;24.80;94.60;;;;;;4861992;29;19932;-59
2022/05/23 01:56:28;;;;;;;;;;;24.80;94.60;;;;;;4848072;29;19939;-59
2022/05/23 02:01:46;;;;;;;;;;;24.70;94.60;;;;;;4866225;29;19936;-60
2022/05/23 02:04:28;;;;;;;;;;;24.80;94.60;;;;;;4862274;29;19931;-60
2022/05/23 02:06:56;;;;;;;;;;;24.70;94.60;;;;;;4863009;29;19932;-59
2022/05/23 02:09:32;;;;;;;;;;;24.80;94.60;;;;;;4859482;29;20373;-62
2022/05/23 02:12:07;;;;;;;;;;;24.70;94.60;;;;;;4869921;29;20535;-59
2022/05/23 02:14:35;;;;;;;;;;;24.80;94.60;;;;;;4854540;29;19928;-61
2022/05/23 02:17:09;;;;;;;;;;;24.80;94.60;;;;;;4870884;29;20408;-60
2022/05/23 02:19:36;;;;;;;;;;;24.70;94.60;;;;;;4868008;29;19932;-60
2022/05/23 02:22:13;;;;;;;;;;;24.80;94.60;;;;;;4848582;29;19932;-60
2022/05/23 02:24:40;;;;;;;;;;;24.70;94.60;;;;;;4845639;29;19936;-61
2022/05/23 02:27:08;;;;;;;;;;;24.70;94.60;;;;;;4854189;29;19932;-61
2022/05/23 02:29:38;;;;;;;;;;;24.70;94.60;;;;;;4874900;29;19932;-61
2022/05/23 02:32:06;;;;;;;;;;;24.70;94.60;;;;;;4843793;29;19932;-62
2022/05/23 02:34:34;;;;;;;;;;;24.70;94.60;;;;;;4859566;29;19939;-60
2022/05/23 02:37:01;;;;;;;;;;;24.70;94.60;;;;;;4858582;29;19939;-62
2022/05/23 02:39:51;;;;;;;;;;;24.70;94.60;;;;;;4863718;29;19939;-62
2022/05/23 02:42:19;;;;;;;;;;;24.70;94.60;;;;;;4860824;29;19927;-62
2022/05/23 02:44:47;;;;;;;;;;;24.70;94.60;;;;;;4845483;29;20361;-60
2022/05/23 02:47:20;;;;;;;;;;;24.70;94.60;;;;;;4856329;29;19933;-61
2022/05/23 02:49:50;;;;;;;;;;;24.70;94.60;;;;;;4846186;29;19929;-62
2022/05/23 02:52:31;;;;;;;;;;;24.70;94.70;;;;;;4844288;29;19935;-60
2022/05/23 02:55:09;;;;;;;;;;;24.70;94.70;;;;;;4858388;29;19932;-62
2022/05/23 02:57:37;;;;;;;;;;;24.70;94.60;;;;;;4860232;29;19936;-64
2022/05/23 03:00:11;;;;;;;;;;;24.70;94.60;;;;;;4856828;29;19936;-61
2022/05/23 03:05:31;;;;;;;;;;;24.70;94.70;;;;;;4848584;29;19954;-61
2022/05/23 03:07:59;;;;;;;;;;;24.70;94.70;;;;;;4859273;29;19956;-62
2022/05/23 03:10:26;;;;;;;;;;;24.60;94.70;;;;;;4865752;29;19938;-61
2022/05/23 03:12:53;;;;;;;;;;;24.60;94.70;;;;;;4866033;29;19935;-62
2022/05/23 03:15:21;;;;;;;;;;;24.60;94.60;;;;;;4859807;29;19942;-64
2022/05/23 03:17:48;;;;;;;;;;;24.60;94.60;;;;;;4871210;29;19932;-62
2022/05/23 03:20:16;;;;;;;;;;;24.60;94.70;;;;;;4859053;29;19938;-62
2022/05/23 03:28:16;;;;;;;;;;;24.60;94.60;;;;;;4858645;29;19939;-61
2022/05/23 03:30:44;;;;;;;;;;;24.60;94.70;;;;;;4853770;29;19932;-62
2022/05/23 03:33:11;;;;;;;;;;;24.60;94.70;;;;;;4848652;29;20324;-61
2022/05/23 03:35:39;;;;;;;;;;;24.60;94.70;;;;;;4859903;29;20316;-62
2022/05/23 03:38:06;;;;;;;;;;;24.60;94.70;;;;;;4863662;29;19936;-60
2022/05/23 03:40:38;;;;;;;;;;;24.60;94.90;;;;;;4851140;29;19952;-62
2022/05/23 03:43:07;;;;;;;;;;;24.60;94.70;;;;;;4862237;29;19955;-62
2022/05/23 03:45:34;;;;;;;;;;;24.60;94.70;;;;;;4860165;29;19928;-60
2022/05/23 03:48:07;;;;;;;;;;;24.60;94.70;;;;;;4856284;29;20027;-59
2022/05/23 03:50:34;;;;;;;;;;;24.60;94.70;;;;;;4842588;29;19939;-59
2022/05/23 03:53:02;;;;;;;;;;;24.60;94.70;;;;;;4861652;29;20324;-60
2022/05/23 03:55:32;;;;;;;;;;;24.60;94.70;;;;;;4851142;29;20416;-61
2022/05/23 03:58:11;;;;;;;;;;;24.60;94.70;;;;;;4855032;29;19932;-61
2022/05/23 04:00:43;;;;;;;;;;;24.60;94.70;;;;;;4862241;29;19932;-61
2022/05/23 04:03:11;;;;;;;;;;;24.60;94.90;;;;;;4844364;29;19936;-62
2022/05/23 04:05:41;;;;;;;;;;;24.60;94.70;;;;;;4847641;29;20351;-63
2022/05/23 04:08:14;;;;;;;;;;;24.60;94.70;;;;;;4857568;29;19940;-60
2022/05/23 04:10:47;;;;;;;;;;;24.60;94.70;;;;;;4856050;29;20529;-59
2022/05/23 04:13:15;;;;;;;;;;;24.50;94.70;;;;;;4858982;29;20401;-58
2022/05/23 04:15:42;;;;;;;;;;;24.60;94.70;;;;;;4859098;29;20328;-62
2022/05/23 04:18:10;;;;;;;;;;;24.50;94.70;;;;;;4843848;29;20376;-64
2022/05/23 04:20:38;;;;;;;;;;;24.50;94.70;;;;;;4847590;29;19932;-61
2022/05/23 04:23:09;;;;;;;;;;;24.50;94.70;;;;;;4856543;29;19932;-63
2022/05/23 04:25:42;;;;;;;;;;;24.50;94.70;;;;;;4852354;29;19935;-62
2022/05/23 04:28:10;;;;;;;;;;;24.50;94.70;;;;;;4850703;29;19932;-61
2022/05/23 04:30:43;;;;;;;;;;;24.50;94.70;;;;;;4849800;29;19935;-61
2022/05/23 04:35:56;;;;;;;;;;;24.50;94.80;;;;;;4861181;29;19932;-61
2022/05/23 04:38:30;;;;;;;;;;;24.50;94.80;;;;;;4843137;29;19940;-61
2022/05/23 04:41:00;;;;;;;;;;;24.50;94.80;;;;;;4849034;29;19939;-64
2022/05/23 04:43:44;;;;;;;;;;;24.50;94.80;;;;;;4863349;29;19928;-64
2022/05/23 04:46:11;;;;;;;;;;;24.50;94.70;;;;;;4864123;29;19936;-67
2022/05/23 04:51:47;;;;;;;;;;;24.50;94.80;;;;;;4862888;29;19935;-61
2022/05/23 04:54:19;;;;;;;;;;;24.50;94.80;;;;;;4859435;29;20292;-61
2022/05/23 04:56:49;;;;;;;;;;;24.50;94.80;;;;;;4856940;29;19932;-62
2022/05/23 04:59:18;;;;;;;;;;;24.50;94.70;;;;;;4841228;29;20029;-62
2022/05/23 05:01:46;;;;;;;;;;;24.50;94.80;;;;;;4840077;29;19932;-60
2022/05/23 05:04:14;;;;;;;;;;;24.50;94.80;;;;;;4855731;29;19932;-62
2022/05/23 05:06:43;;;;;;;;;;;24.50;94.80;;;;;;4844963;29;20407;-61
2022/05/23 05:09:10;;;;;;;;;;;24.50;94.80;;;;;;4840810;29;19951;-61
2022/05/23 05:11:38;;;;;;;;;;;24.50;94.70;;;;;;4851316;29;19928;-61
2022/05/23 05:14:12;;;;;;;;;;;24.50;94.70;;;;;;4855506;29;19932;-60
2022/05/23 05:16:47;;;;;;;;;;;24.50;94.80;;;;;;4840259;29;20316;-62
2022/05/23 05:19:15;;;;;;;;;;;24.50;94.80;;;;;;4840470;29;19928;-60
2022/05/23 05:21:54;;;;;;;;;;;24.50;94.80;;;;;;4862952;29;19939;-61
2022/05/23 05:24:44;;;;;;;;;;;24.40;94.80;;;;;;4855746;29;19932;-61
2022/05/23 05:27:29;;;;;;;;;;;24.40;94.80;;;;;;4845199;29;20320;-61
2022/05/23 05:29:57;;;;;;;;;;;24.50;94.80;;;;;;4838650;29;19940;-60
2022/05/23 05:32:28;;;;;;;;;;;24.40;94.80;;;;;;4856445;29;19932;-59
2022/05/23 05:35:18;;;;;;;;;;;24.40;94.80;;;;;;4856371;29;19939;-59
2022/05/23 05:37:56;;;;;;;;;;;24.40;94.80;;;;;;4853319;29;19936;-61
2022/05/23 05:40:26;;;;;;;;;;;24.40;94.80;;;;;;4876000;29;20012;-59
2022/05/23 05:42:56;;;;;;;;;;;24.40;94.80;;;;;;4856183;29;20416;-61
2022/05/23 05:45:29;;;;;;;;;;;24.40;94.80;;;;;;4842547;29;19943;-58
2022/05/23 05:48:01;;;;;;;;;;;24.40;94.80;;;;;;4841435;29;19932;-62
2022/05/23 05:50:44;;;;;;;;;;;24.40;94.80;;;;;;4840827;29;19963;-58
2022/05/23 05:53:18;;;;;;;;;;;24.40;94.80;;;;;;4857781;29;20306;-62
2022/05/23 05:55:45;;;;;;;;;;;24.40;94.80;;;;;;4842457;29;19932;-61
2022/05/23 05:58:13;;;;;;;;;;;24.40;94.80;;;;;;4861676;29;19948;-63
2022/05/23 06:00:48;;;;;;;;;;;24.40;94.80;;;;;;4848595;29;20018;-61
2022/05/23 06:03:18;;;;;;;;;;;24.40;94.80;;;;;;4848563;29;19955;-61
2022/05/23 06:11:45;;;;;;;;;;;24.40;94.80;;;;;;4857794;29;20340;-64
2022/05/23 06:14:17;;;;;;;;;;;24.40;94.70;;;;;;4857585;29;19928;-64
2022/05/23 06:16:51;;;;;;;;;;;24.40;94.70;;;;;;4843856;29;19932;-66
2022/05/23 06:19:38;;;;;;;;;;;24.40;94.70;;;;;;4860375;29;19932;-61
2022/05/23 06:22:15;;;;;;;;;;;24.40;94.70;;;;;;4850957;29;19935;-63
2022/05/23 06:25:05;;;;;;;;;;;24.40;94.70;;;;;;4853088;29;19944;-61
2022/05/23 06:27:33;;;;;;;;;;;24.40;94.70;;;;;;4846165;29;19932;-64
2022/05/23 06:30:06;;;;;;;;;;;24.40;94.70;;;;;;4847135;29;19936;-61
2022/05/23 06:33:00;;;;;;;;;;;24.40;94.70;;;;;;4860181;29;19932;-63
2022/05/23 06:35:47;;;;;;;;;;;24.50;94.70;;;;;;4868175;29;20006;-63
2022/05/23 06:38:16;;;;;;;;;;;24.50;94.70;;;;;;4861313;29;19939;-64
2022/05/23 06:40:50;;;;;;;;;;;24.50;94.70;;;;;;4875632;29;19932;-63
2022/05/23 06:43:37;;;;;;;;;;;24.40;94.70;;;;;;4869044;29;19932;-65
2022/05/23 06:46:22;;;;;;;;;;;24.50;94.70;;;;;;4869791;29;21444;-62
2022/05/23 06:49:28;;;;;;;;;;;24.50;94.70;;;;;;4797803;29;19938;-63
2022/05/23 06:52:21;;;;;;;;;;;24.50;94.70;;;;;;4778256;29;19959;-63
2022/05/23 06:55:04;;;;;;;;;;;24.50;94.70;;;;;;4841421;29;20411;-63
2022/05/23 06:57:43;;;;;;;;;;;24.50;94.70;;;;;;4857232;29;19932;-64
2022/05/23 07:00:11;;;;;;;;;;;24.50;94.80;;;;;;4855420;29;20427;-61
2022/05/23 07:02:40;;;;;;;;;;;24.50;94.80;;;;;;4855518;29;19939;-62
2022/05/23 07:13:45;;;;;;;;;;;24.60;94.90;;;;;;4852144;29;21279;-63
2022/05/23 07:16:16;;;;;;;;;;;24.60;94.90;;;;;;4838840;29;19960;-64
2022/05/23 07:18:44;;;;;;;;;;;24.60;94.90;;;;;;4839628;29;19933;-62
2022/05/23 07:21:19;;;;;;;;;;;24.60;94.90;;;;;;4838159;29;19932;-62
2022/05/23 07:24:00;;;;;;;;;;;24.60;94.90;;;;;;4837760;29;19932;-60
2022/05/23 07:26:43;;;;;;;;;;;24.60;94.90;;;;;;4837121;29;20400;-62
2022/05/23 07:29:13;;;;;;;;;;;24.60;94.90;;;;;;4852318;29;20022;-62
2022/05/23 07:31:42;;;;;;;;;;;24.60;94.90;;;;;;4836716;29;19943;-62
2022/05/23 07:34:09;;;;;;;;;;;24.60;94.90;;;;;;4848965;29;20290;-61
2022/05/23 07:36:37;;;;;;;;;;;24.50;94.90;;;;;;4838158;29;19939;-61
2022/05/23 07:39:08;;;;;;;;;;;24.60;94.90;;;;;;4851407;29;19928;-62
2022/05/23 07:42:05;;;;;;;;;;;24.60;94.90;;;;;;4837238;29;19932;-63
2022/05/23 07:44:34;;;;;;;;;;;24.60;94.90;;;;;;4836437;29;19933;-60
2022/05/23 07:47:07;;;;;;;;;;;24.60;94.90;;;;;;4840009;29;19929;-62
2022/05/23 07:49:39;;;;;;;;;;;24.60;94.90;;;;;;4837929;29;19937;-59
2022/05/23 07:52:14;;;;;;;;;;;24.60;94.90;;;;;;4838385;29;19929;-59
2022/05/23 08:00:44;;;;;;;;;;;24.60;95.00;;;;;;4837121;29;20005;-59
2022/05/23 08:03:19;;;;;;;;;;;24.60;95.00;;;;;;4816408;29;20302;-62
2022/05/23 08:06:03;;;;;;;;;;;24.60;95.00;;;;;;4836419;29;20309;-61
2022/05/23 08:08:30;;;;;;;;;;;24.60;95.00;;;;;;4822446;29;19939;-61
2022/05/23 08:10:58;;;;;;;;;;;24.60;95.00;;;;;;4852116;29;19932;-61
2022/05/23 08:13:30;;;;;;;;;;;24.60;95.00;;;;;;4821789;29;19936;-60
2022/05/23 08:15:58;;;;;;;;;;;24.70;95.00;;;;;;4823989;29;19940;-61
2022/05/23 08:18:25;;;;;;;;;;;24.60;95.00;;;;;;4827212;29;19940;-61
2022/05/23 08:20:57;;;;;;;;;;;24.60;95.00;;;;;;4827402;29;19932;-62
2022/05/23 08:23:30;;;;;;;;;;;24.70;95.10;;;;;;4823629;29;20483;-60
2022/05/23 08:26:10;;;;;;;;;;;24.60;95.00;;;;;;4821333;29;19947;-59
2022/05/23 08:28:42;;;;;;;;;;;24.60;95.10;;;;;;4821236;29;19932;-61
2022/05/23 08:31:10;;;;;;;;;;;24.70;95.10;;;;;;4829416;29;19951;-62
2022/05/23 08:33:43;;;;;;;;;;;24.60;95.10;;;;;;4832524;29;20391;-65
2022/05/23 08:36:21;;;;;;;;;;;24.60;95.10;;;;;;4838139;29;19932;-60
2022/05/23 08:38:48;;;;;;;;;;;24.60;95.10;;;;;;4842735;29;20347;-61
2022/05/23 08:41:35;;;;;;;;;;;24.60;95.10;;;;;;4803689;29;19928;-58
2022/05/23 08:44:19;;;;;;;;;;;24.70;95.10;;;;;;4827677;29;19933;-60
2022/05/23 08:46:54;;;;;;;;;;;24.60;95.10;;;;;;4820798;29;19932;-63
2022/05/23 08:49:31;;;;;;;;;;;24.60;95.10;;;;;;4840807;29;19959;-63
2022/05/23 08:52:04;;;;;;;;;;;24.70;95.10;;;;;;4838798;29;19963;-60
2022/05/23 08:54:38;;;;;;;;;;;24.70;95.10;;;;;;4821061;29;19929;-61
2022/05/23 08:57:26;;;;;;;;;;;24.70;95.10;;;;;;4843468;29;19932;-58
2022/05/23 08:59:59;;;;;;;;;;;24.70;95.20;;;;;;4834835;29;19940;-62
2022/05/23 09:02:47;;;;;;;;;;;24.70;95.10;;;;;;4849235;29;19955;-61
2022/05/23 09:05:32;;;;;;;;;;;24.70;95.10;;;;;;4840284;29;20409;-62
2022/05/23 09:08:24;;;;;;;;;;;24.70;95.10;;;;;;4836691;29;19932;-61
2022/05/23 09:11:04;;;;;;;;;;;24.70;95.20;;;;;;4856394;29;19963;-60
2022/05/23 09:13:33;;;;;;;;;;;24.70;95.10;;;;;;4853256;29;19932;-62
2022/05/23 09:16:04;;;;;;;;;;;24.70;95.20;;;;;;4854989;29;20403;-62
2022/05/23 09:18:38;;;;;;;;;;;24.70;95.20;;;;;;4854476;29;19928;-62
2022/05/23 09:21:06;;;;;;;;;;;24.70;95.20;;;;;;4852457;29;19932;-62
2022/05/23 09:23:38;;;;;;;;;;;24.70;95.20;;;;;;4855234;29;19932;-62
2022/05/23 09:26:11;;;;;;;;;;;24.70;95.20;;;;;;4854971;29;19939;-61
2022/05/23 09:28:39;;;;;;;;;;;24.70;95.20;;;;;;4852757;29;20464;-61
2022/05/23 09:31:18;;;;;;;;;;;24.70;95.20;;;;;;4858620;29;19932;-61
2022/05/23 09:33:48;;;;;;;;;;;24.70;95.30;;;;;;4862842;29;20029;-64
2022/05/23 09:36:38;;;;;;;;;;;24.70;95.30;;;;;;4868565;29;19996;-60
2022/05/23 09:39:07;;;;;;;;;;;24.70;95.30;;;;;;4860059;29;19951;-60
2022/05/23 09:47:45;;;;;;;;;;;24.70;95.30;;;;;;4861744;29;19939;-63
2022/05/23 09:50:33;;;;;;;;;;;24.70;95.30;;;;;;4860606;29;20412;-62
2022/05/23 09:53:24;;;;;;;;;;;24.70;95.30;;;;;;4862679;29;19932;-61
2022/05/23 09:56:18;;;;;;;;;;;24.70;95.30;;;;;;4864036;29;19950;-63
2022/05/23 09:58:46;;;;;;;;;;;24.70;95.30;;;;;;4866605;29;19931;-64
2022/05/23 10:01:23;;;;;;;;;;;24.70;95.30;;;;;;4864673;29;19958;-63
2022/05/23 10:03:51;;;;;;;;;;;24.70;95.30;;;;;;4876543;29;19932;-63
2022/05/23 10:06:19;;;;;;;;;;;24.70;95.30;;;;;;4860685;29;19936;-64
2022/05/23 10:08:50;;;;;;;;;;;24.70;95.30;;;;;;4869016;29;19935;-64
2022/05/23 10:11:30;;;;;;;;;;;24.70;95.30;;;;;;4849245;29;20233;-63
2022/05/23 10:13:58;;;;;;;;;;;24.70;95.30;;;;;;4859162;29;19932;-62
2022/05/23 10:16:44;;;;;;;;;;;24.70;95.30;;;;;;4859869;29;19932;-60
2022/05/23 10:19:22;;;;;;;;;;;24.70;95.30;;;;;;4860151;29;19936;-62
2022/05/23 10:22:04;;;;;;;;;;;24.70;95.30;;;;;;4860726;29;19928;-61
2022/05/23 10:24:32;;;;;;;;;;;24.70;95.30;;;;;;4859812;29;19940;-60
2022/05/23 10:27:01;;;;;;;;;;;24.70;95.30;;;;;;4844038;29;19967;-63
2022/05/23 10:29:48;;;;;;;;;;;24.70;95.30;;;;;;4859237;29;19932;-65
2022/05/23 10:32:28;;;;;;;;;;;24.70;95.30;;;;;;4843733;29;19932;-62
2022/05/23 10:35:16;;;;;;;;;;;24.70;95.30;;;;;;4857116;29;19958;-62
2022/05/23 10:37:44;;;;;;;;;;;24.70;95.30;;;;;;4859017;29;19932;-62
2022/05/23 10:43:16;;;;;;;;;;;24.80;95.30;;;;;;4858472;29;19932;-62
2022/05/23 10:45:47;;;;;;;;;;;24.80;95.30;;;;;;4853665;29;20257;-64
2022/05/23 10:48:33;;;;;;;;;;;24.70;95.30;;;;;;4858144;29;20038;-62
2022/05/23 10:51:02;;;;;;;;;;;24.80;95.30;;;;;;4856472;29;19966;-62
2022/05/23 10:53:29;;;;;;;;;;;24.80;95.30;;;;;;4857690;29;19940;-62
2022/05/23 10:56:17;;;;;;;;;;;24.80;95.30;;;;;;4858326;29;19943;-63
2022/05/23 10:58:58;;;;;;;;;;;24.80;95.20;;;;;;4858353;29;19939;-63
2022/05/23 11:01:37;;;;;;;;;;;24.80;95.20;;;;;;4857461;29;19928;-62
2022/05/23 11:04:10;;;;;;;;;;;24.80;95.30;;;;;;4857871;29;20010;-62
2022/05/23 11:06:40;;;;;;;;;;;24.80;95.20;;;;;;4857463;29;20002;-63
2022/05/23 11:09:33;;;;;;;;;;;24.80;95.20;;;;;;4858316;29;20273;-63
2022/05/23 11:12:19;;;;;;;;;;;24.80;95.20;;;;;;4861760;29;20199;-61
2022/05/23 11:14:50;;;;;;;;;;;24.80;95.20;;;;;;4858727;29;20003;-68
2022/05/23 11:17:25;;;;;;;;;;;24.80;95.20;;;;;;4860762;29;20019;-62
2022/05/23 11:19:52;;;;;;;;;;;24.80;95.20;;;;;;4857685;29;19955;-64
2022/05/23 11:22:28;;;;;;;;;;;24.80;95.20;;;;;;4858435;29;19948;-63
2022/05/23 11:25:18;;;;;;;;;;;24.80;95.20;;;;;;4858071;29;19932;-61
2022/05/23 11:36:09;;;;;;;;;;;24.80;95.20;;;;;;4857610;29;19928;-64
2022/05/23 11:38:44;;;;;;;;;;;24.80;95.10;;;;;;4857612;29;19939;-62
2022/05/23 11:41:29;;;;;;;;;;;24.80;95.10;;;;;;4863082;29;19936;-62
2022/05/23 11:43:56;;;;;;;;;;;24.80;95.10;;;;;;4860424;29;19932;-60
2022/05/23 11:46:26;;;;;;;;;;;24.80;95.10;;;;;;4856453;29;19955;-62
2022/05/23 11:48:55;;;;;;;;;;;24.80;95.10;;;;;;4856457;29;19939;-61
2022/05/23 11:51:29;;;;;;;;;;;24.80;95.00;;;;;;4852662;29;19932;-61
2022/05/23 11:53:59;;;;;;;;;;;24.80;95.10;;;;;;4856521;29;19939;-60
2022/05/23 11:56:40;;;;;;;;;;;24.80;95.10;;;;;;4856668;29;19928;-61
2022/05/23 11:59:09;;;;;;;;;;;24.80;95.10;;;;;;4856908;29;19935;-62
2022/05/23 12:01:37;;;;;;;;;;;24.80;95.10;;;;;;4853815;29;19932;-61
2022/05/23 12:04:04;;;;;;;;;;;24.80;95.10;;;;;;4873595;29;19939;-60
2022/05/23 12:06:32;;;;;;;;;;;24.80;95.10;;;;;;4857187;29;19945;-63
2022/05/23 12:09:05;;;;;;;;;;;24.80;95.00;;;;;;4856190;29;20418;-61
2022/05/23 12:11:41;;;;;;;;;;;24.80;95.30;;;;;;4829867;29;20392;-60
2022/05/23 12:14:11;;;;;;;;;;;24.80;95.10;;;;;;4839740;29;20439;-63
2022/05/23 12:16:40;;;;;;;;;;;24.80;95.10;;;;;;4856003;29;20317;-61
2022/05/23 12:19:11;;;;;;;;;;;24.80;95.10;;;;;;4855529;29;19928;-61
2022/05/23 12:21:40;;;;;;;;;;;24.80;95.10;;;;;;4855591;29;19928;-59
2022/05/23 12:24:22;;;;;;;;;;;24.80;95.10;;;;;;4856307;29;20003;-61
2022/05/23 12:27:22;;;;;;;;;;;24.80;95.10;;;;;;4855831;29;19932;-61
2022/05/23 12:30:10;;;;;;;;;;;24.80;95.10;;;;;;4839401;29;19928;-63
2022/05/23 12:32:38;;;;;;;;;;;24.80;95.10;;;;;;4855243;29;19931;-63
2022/05/23 12:35:06;;;;;;;;;;;24.80;95.10;;;;;;4855542;29;19932;-61
2022/05/23 12:37:36;;;;;;;;;;;24.80;95.10;;;;;;4853680;29;19955;-61
2022/05/23 12:40:03;;;;;;;;;;;24.80;95.00;;;;;;4854749;29;19958;-62
2022/05/23 12:42:41;;;;;;;;;;;24.80;95.30;;;;;;4861575;29;19939;-62
2022/05/23 12:45:17;;;;;;;;;;;24.80;95.10;;;;;;4856599;29;19940;-61
2022/05/23 12:47:44;;;;;;;;;;;24.80;95.00;;;;;;4859203;29;19932;-63
2022/05/23 12:50:24;;;;;;;;;;;24.80;95.00;;;;;;4857119;29;19932;-64
2022/05/23 12:52:51;;;;;;;;;;;24.80;95.00;;;;;;4856863;29;19943;-63
2022/05/23 12:55:21;;;;;;;;;;;24.80;95.00;;;;;;4856741;29;20379;-61
2022/05/23 12:58:13;;;;;;;;;;;24.80;95.00;;;;;;4856191;29;20395;-62
2022/05/23 13:00:43;;;;;;;;;;;24.80;95.00;;;;;;4839389;29;20035;-63
2022/05/23 13:03:18;;;;;;;;;;;24.80;95.10;;;;;;4846160;29;20388;-63
2022/05/23 13:06:06;;;;;;;;;;;24.80;95.00;;;;;;4856099;29;19939;-62
2022/05/23 13:08:37;;;;;;;;;;;24.80;95.10;;;;;;4858560;29;19936;-63
2022/05/23 13:11:06;;;;;;;;;;;24.80;95.10;;;;;;4859641;29;20399;-63
2022/05/23 13:13:35;;;;;;;;;;;24.80;95.10;;;;;;4859134;29;19936;-63
2022/05/23 13:16:22;;;;;;;;;;;24.80;95.10;;;;;;4858976;29;19935;-65
2022/05/23 13:27:14;;;;;;;;;;;24.80;95.10;;;;;;4864563;29;19947;-65
2022/05/23 13:29:41;;;;;;;;;;;24.80;95.10;;;;;;4862397;29;19932;-63
2022/05/23 13:32:12;;;;;;;;;;;24.80;95.10;;;;;;4854134;29;19932;-64
2022/05/23 13:34:42;;;;;;;;;;;24.80;95.00;;;;;;4840772;29;19931;-61
2022/05/23 13:37:12;;;;;;;;;;;24.80;95.00;;;;;;4839388;29;20404;-63
2022/05/23 13:39:46;;;;;;;;;;;24.80;94.90;;;;;;4855702;29;19939;-62
2022/05/23 13:42:20;;;;;;;;;;;24.90;94.90;;;;;;4861954;29;19947;-62
2022/05/23 13:44:48;;;;;;;;;;;24.90;94.90;;;;;;4855578;29;20324;-63
2022/05/23 13:47:28;;;;;;;;;;;24.90;94.90;;;;;;4868387;29;19932;-61
2022/05/23 13:49:57;;;;;;;;;;;24.90;94.90;;;;;;4854937;29;19983;-63
2022/05/23 13:52:29;;;;;;;;;;;25.00;94.80;;;;;;4863570;29;19947;-60
2022/05/23 13:55:20;;;;;;;;;;;25.00;94.80;;;;;;4858939;29;20414;-63
2022/05/23 13:57:49;;;;;;;;;;;25.00;94.80;;;;;;4847905;29;20297;-62
2022/05/23 14:00:21;;;;;;;;;;;25.00;94.80;;;;;;4855522;29;19943;-61
2022/05/23 14:02:55;;;;;;;;;;;25.00;94.80;;;;;;4856188;29;19939;-61
2022/05/23 14:05:24;;;;;;;;;;;25.00;94.80;;;;;;4855716;29;19932;-63
2022/05/23 14:07:53;;;;;;;;;;;25.00;94.80;;;;;;4862861;29;19936;-62
2022/05/23 14:10:22;;;;;;;;;;;25.00;94.70;;;;;;4857557;29;19937;-62
2022/05/23 14:12:50;;;;;;;;;;;25.00;94.70;;;;;;4852755;29;20312;-62
2022/05/23 14:15:22;;;;;;;;;;;25.10;94.70;;;;;;4855052;29;20007;-63
2022/05/23 14:17:49;;;;;;;;;;;25.10;94.70;;;;;;4859110;29;19939;-64
2022/05/23 14:20:22;;;;;;;;;;;25.10;94.70;;;;;;4866628;29;19928;-63
2022/05/23 14:23:08;;;;;;;;;;;25.10;94.70;;;;;;4859255;29;20369;-64
2022/05/23 14:25:35;;;;;;;;;;;25.10;94.70;;;;;;4841588;29;19928;-64
2022/05/23 14:28:22;;;;;;;;;;;25.20;94.60;;;;;;4858145;29;19939;-63
2022/05/23 14:30:51;;;;;;;;;;;25.20;94.50;;;;;;4858972;29;19932;-62
2022/05/23 14:33:18;;;;;;;;;;;25.40;94.40;;;;;;4858304;29;19939;-63
2022/05/23 14:35:59;;;;;;;;;;;25.40;94.30;;;;;;4859583;29;20271;-60
2022/05/23 14:38:41;;;;;;;;;;;25.50;94.20;;;;;;4858409;29;20042;-65
2022/05/23 14:41:20;;;;;;;;;;;25.50;94.10;;;;;;4863425;29;19928;-65
2022/05/23 14:44:02;;;;;;;;;;;25.60;94.10;;;;;;4858619;29;19935;-62
2022/05/23 14:46:31;;;;;;;;;;;25.60;94.00;;;;;;4857891;29;19939;-64
2022/05/23 14:49:00;;;;;;;;;;;25.70;93.90;;;;;;4858187;29;19938;-61
2022/05/23 14:51:27;;;;;;;;;;;25.80;93.90;;;;;;4857067;29;19955;-62
2022/05/23 14:57:07;;;;;;;;;;;25.80;93.70;;;;;;4857646;29;19934;-63
2022/05/23 15:02:41;;;;;;;;;;;25.80;93.70;;;;;;4857380;29;19956;-62
2022/05/23 15:05:11;;;;;;;;;;;25.80;93.80;;;;;;4857423;29;19928;-61
2022/05/23 15:07:38;;;;;;;;;;;25.80;93.80;;;;;;4857396;29;19935;-62
2022/05/23 15:10:06;;;;;;;;;;;25.80;93.80;;;;;;4860469;29;19928;-62
2022/05/23 15:12:35;;;;;;;;;;;25.90;93.80;;;;;;4864152;29;19948;-60
2022/05/23 15:15:02;;;;;;;;;;;25.90;93.60;;;;;;4826684;29;19928;-62
2022/05/23 15:17:29;;;;;;;;;;;26.00;93.60;;;;;;4857197;29;19932;-61
2022/05/23 15:19:57;;;;;;;;;;;26.00;93.50;;;;;;4857562;29;20368;-63
2022/05/23 15:22:27;;;;;;;;;;;25.90;93.60;;;;;;4826421;29;19932;-61
2022/05/23 15:24:54;;;;;;;;;;;25.90;93.70;;;;;;4857828;29;20312;-63
2022/05/23 15:27:25;;;;;;;;;;;25.80;93.80;;;;;;4859739;29;20414;-59
2022/05/23 15:29:53;;;;;;;;;;;25.70;93.80;;;;;;4867335;29;19952;-64
2022/05/23 15:32:20;;;;;;;;;;;25.70;93.90;;;;;;4867764;29;19928;-58
2022/05/23 15:34:48;;;;;;;;;;;25.70;94.00;;;;;;4860758;29;19939;-62
2022/05/23 15:37:15;;;;;;;;;;;25.60;93.90;;;;;;4857048;29;20038;-62
2022/05/23 15:39:43;;;;;;;;;;;25.70;94.00;;;;;;4840949;29;19939;-61
2022/05/23 15:42:12;;;;;;;;;;;25.60;93.90;;;;;;4861367;29;19928;-60
2022/05/23 15:44:42;;;;;;;;;;;25.60;93.90;;;;;;4856926;29;19987;-61
2022/05/23 15:47:11;;;;;;;;;;;25.60;94.00;;;;;;4857325;29;20255;-62
2022/05/23 15:49:38;;;;;;;;;;;25.60;94.00;;;;;;4842569;29;19955;-63
2022/05/23 15:52:08;;;;;;;;;;;25.60;94.00;;;;;;4874096;29;19943;-62
2022/05/23 15:54:43;;;;;;;;;;;25.60;94.10;;;;;;4858741;29;19955;-61
2022/05/23 15:57:12;;;;;;;;;;;25.50;94.10;;;;;;4858238;29;19948;-62
2022/05/23 15:59:43;;;;;;;;;;;25.50;94.10;;;;;;4857821;29;19939;-62
2022/05/23 16:02:10;;;;;;;;;;;25.50;94.10;;;;;;4858132;29;20281;-63
2022/05/23 16:04:38;;;;;;;;;;;25.50;94.10;;;;;;4856880;29;19935;-63
2022/05/23 16:07:07;;;;;;;;;;;25.50;94.10;;;;;;4842438;29;20412;-62
2022/05/23 16:09:35;;;;;;;;;;;25.50;94.10;;;;;;4871511;29;19932;-64